Time;durP1;ratioP1;P1;durP2;ratioP2;P2;SDS_P1;SDS_P2;PMS_P1;PMS_P2;Temp;Humidity;BMP_temperature;BMP_pressure;BME280_temperature;BME280_humidity;BME280_pressure;Samples;Min_cycle;Max_cycle;Signal;HPM_P1;HPM_P2
2023/03/07 00:01:56;;;;;;;35.10;26.37;;;;;;;7.87;86.67;98858.00;5099240;28;20172;-55
2023/03/07 00:04:23;;;;;;;41.30;27.80;;;;;;;7.89;86.15;98842.66;5099098;28;20171;-55
2023/03/07 00:06:50;;;;;;;31.30;25.37;;;;;;;8.02;86.09;98854.84;5099272;28;20174;-55
2023/03/07 00:09:17;;;;;;;37.40;26.93;;;;;;;8.04;85.83;98846.34;5099141;28;20183;-55
2023/03/07 00:11:45;;;;;;;44.03;29.93;;;;;;;8.06;85.47;98848.91;5099016;28;20182;-55
2023/03/07 00:14:12;;;;;;;43.53;30.97;;;;;;;8.10;85.42;98851.53;5098955;28;20218;-54
2023/03/07 00:16:38;;;;;;;43.00;29.33;;;;;;;8.17;85.17;98853.38;5099053;28;20168;-55
2023/03/07 00:19:06;;;;;;;37.00;27.53;;;;;;;8.18;84.59;98857.66;5098895;28;20168;-54
2023/03/07 00:21:34;;;;;;;42.23;28.33;;;;;;;8.20;84.67;98855.13;5098916;28;20195;-55
2023/03/07 00:24:01;;;;;;;35.40;27.63;;;;;;;8.21;84.71;98847.44;5098900;28;20195;-55
2023/03/07 00:26:28;;;;;;;47.60;28.77;;;;;;;8.21;84.68;98849.16;5098685;28;20209;-55
2023/03/07 00:28:56;;;;;;;37.77;27.03;;;;;;;8.25;84.60;98850.91;5098616;28;20218;-54
2023/03/07 00:31:23;;;;;;;39.17;27.53;;;;;;;8.06;84.55;98825.88;5098710;28;20183;-55
2023/03/07 00:33:50;;;;;;;35.33;26.77;;;;;;;8.03;84.69;98828.41;5097679;28;20172;-55
2023/03/07 00:36:19;;;;;;;34.73;24.87;;;;;;;8.16;84.87;98843.09;5098510;28;20224;-55
2023/03/07 00:38:46;;;;;;;38.67;28.73;;;;;;;8.17;84.86;98847.38;5098534;28;20202;-55
2023/03/07 00:41:15;;;;;;;36.17;27.87;;;;;;;8.21;84.92;98846.59;5098462;28;20182;-55
2023/03/07 00:43:42;;;;;;;37.23;27.63;;;;;;;8.22;84.47;98843.19;5098388;28;20174;-55
2023/03/07 00:46:10;;;;;;;35.90;27.10;;;;;;;7.75;84.59;98775.13;5098404;28;20176;-55
2023/03/07 00:48:39;;;;;;;34.77;26.73;;;;;;;8.12;84.51;98837.09;5098323;28;20246;-55
2023/03/07 00:51:08;;;;;;;37.17;26.67;;;;;;;8.07;84.82;98825.06;5098296;28;20245;-55
2023/03/07 00:53:36;;;;;;;36.30;25.87;;;;;;;7.88;85.42;98826.47;5098320;28;20192;-55
2023/03/07 00:56:05;;;;;;;39.67;29.17;;;;;;;7.18;85.77;98704.31;5097836;28;20444;-54
2023/03/07 00:58:34;;;;;;;36.03;26.50;;;;;;;7.95;85.54;98814.63;5098331;28;20216;-55
2023/03/07 01:01:02;;;;;;;35.03;26.87;;;;;;;7.85;85.73;98811.09;5098255;28;20168;-55
2023/03/07 01:03:31;;;;;;;40.07;26.60;;;;;;;7.90;85.88;98808.59;5098212;28;20167;-54
2023/03/07 01:05:58;;;;;;;37.47;26.40;;;;;;;7.85;86.27;98794.88;5098139;28;20179;-55
2023/03/07 01:08:25;;;;;;;35.57;27.47;;;;;;;7.85;86.41;98805.09;5097904;28;20199;-54
2023/03/07 01:10:52;;;;;;;38.73;26.73;;;;;;;7.90;86.44;98806.91;5098071;28;20192;-55
2023/03/07 01:13:19;;;;;;;38.70;26.63;;;;;;;7.89;86.42;98797.50;5097968;28;20178;-55
2023/03/07 01:15:46;;;;;;;39.43;28.93;;;;;;;7.69;86.26;98791.22;5097872;28;20199;-54
2023/03/07 01:18:13;;;;;;;39.70;29.60;;;;;;;7.72;86.70;98806.59;5097927;28;20230;-55
2023/03/07 01:20:41;;;;;;;41.07;29.20;;;;;;;7.69;86.60;98799.72;5097943;28;20217;-54
2023/03/07 01:23:08;;;;;;;37.33;26.87;;;;;;;7.60;86.97;98802.16;5097863;28;20179;-55
2023/03/07 01:25:39;;;;;;;43.43;27.20;;;;;;;7.60;87.48;98798.75;5097883;28;20192;-54
2023/03/07 01:28:06;;;;;;;41.50;28.23;;;;;;;7.63;87.79;98793.69;5097480;28;20207;-54
2023/03/07 01:30:34;;;;;;;36.10;26.97;;;;;;;7.63;87.17;98796.22;5097900;28;20168;-56
2023/03/07 01:33:02;;;;;;;38.77;27.90;;;;;;;7.57;87.36;98779.09;5097958;28;20204;-55
2023/03/07 01:35:30;;;;;;;37.33;25.87;;;;;;;7.59;87.08;98789.34;5097945;28;20191;-55
2023/03/07 01:37:58;;;;;;;39.33;27.73;;;;;;;7.60;87.02;98786.81;5097910;28;20169;-55
2023/03/07 01:40:25;;;;;;;35.07;26.47;;;;;;;7.57;87.41;98793.56;5097844;28;20175;-55
2023/03/07 01:42:53;;;;;;;35.40;27.67;;;;;;;7.53;87.34;98799.44;5097792;28;20189;-55
2023/03/07 01:45:57;;;;;;;38.20;27.33;;;;;;;7.58;87.36;98802.97;5100204;28;20175;-55
2023/03/07 01:48:23;;;;;;;39.43;28.57;;;;;;;7.54;87.46;98796.94;5101741;28;20178;-56
2023/03/07 01:50:50;;;;;;;37.73;28.67;;;;;;;7.54;87.20;98801.19;5101865;28;20191;-55
2023/03/07 01:53:19;;;;;;;38.73;27.73;;;;;;;7.49;87.60;98811.34;5101802;28;20171;-56
2023/03/07 01:55:45;;;;;;;41.73;29.07;;;;;;;7.45;87.88;98807.00;5101549;28;20194;-55
2023/03/07 01:58:14;;;;;;;40.07;28.37;;;;;;;7.42;86.91;98804.38;5101677;28;20187;-56
2023/03/07 02:00:43;;;;;;;46.33;30.23;;;;;;;7.43;86.37;98802.69;5101536;28;20201;-56
2023/03/07 02:03:18;;;;;;;41.80;28.77;;;;;;;7.04;85.78;98773.06;5101611;28;20177;-56
2023/03/07 02:05:49;;;;;;;39.03;28.60;;;;;;;7.23;85.95;98807.44;5101580;28;20173;-54
2023/03/07 02:08:20;;;;;;;42.43;28.37;;;;;;;7.21;86.42;98803.16;5101468;28;20221;-55
2023/03/07 02:10:47;;;;;;;42.47;28.43;;;;;;;7.09;86.11;98804.63;5101474;28;20197;-55
2023/03/07 02:13:14;;;;;;;36.07;27.63;;;;;;;7.02;86.40;98795.16;5101396;28;20201;-59
2023/03/07 02:15:40;;;;;;;34.13;26.10;;;;;;;6.94;86.47;98794.16;5101333;28;20198;-55
2023/03/07 02:18:08;;;;;;;38.93;26.43;;;;;;;6.68;86.46;98771.47;5101231;28;20193;-55
2023/03/07 02:20:45;;;;;;;37.90;25.97;;;;;;;6.64;86.68;98791.00;5101322;28;20171;-55
2023/03/07 02:23:21;;;;;;;34.73;25.33;;;;;;;6.64;87.93;98805.44;5101232;28;20201;-55
2023/03/07 02:25:56;;;;;;;32.70;24.67;;;;;;;6.49;88.08;98801.72;5101284;28;20174;-55
2023/03/07 02:28:25;;;;;;;33.53;24.80;;;;;;;6.56;87.63;98800.19;5100978;28;20233;-56
2023/03/07 02:30:56;;;;;;;31.27;24.30;;;;;;;6.59;87.47;98807.91;5101215;28;20178;-55
2023/03/07 02:33:23;;;;;;;31.87;25.13;;;;;;;6.57;87.73;98806.13;5101147;28;20168;-55
2023/03/07 02:35:54;;;;;;;28.90;23.17;;;;;;;6.56;87.31;98807.84;5101115;28;20192;-55
2023/03/07 02:38:22;;;;;;;38.47;23.23;;;;;;;6.54;88.23;98815.44;5101067;28;20182;-55
2023/03/07 02:40:50;;;;;;;32.67;25.37;;;;;;;6.57;87.60;98804.44;5101049;28;20186;-55
2023/03/07 02:43:16;;;;;;;36.80;27.90;;;;;;;6.52;87.59;98798.38;5100508;28;20425;-55
2023/03/07 02:45:44;;;;;;;37.07;25.67;;;;;;;6.43;87.90;98798.19;5100912;28;20170;-56
2023/03/07 02:48:11;;;;;;;30.47;23.87;;;;;;;6.32;88.58;98792.84;5100654;28;20185;-55
2023/03/07 02:50:38;;;;;;;33.00;24.77;;;;;;;5.58;89.02;98681.53;5100681;28;20186;-55
2023/03/07 02:53:05;;;;;;;37.60;25.43;;;;;;;6.35;89.08;98794.59;5100637;28;20183;-57
2023/03/07 02:55:33;;;;;;;33.80;24.63;;;;;;;6.17;88.29;98767.03;5099997;28;20199;-56
2023/03/07 02:57:59;;;;;;;28.77;22.73;;;;;;;6.26;88.41;98779.97;5099785;28;20181;-56
2023/03/07 03:00:26;;;;;;;28.93;23.40;;;;;;;6.36;88.18;98801.44;5100581;28;20174;-56
2023/03/07 03:02:55;;;;;;;29.33;22.20;;;;;;;6.39;88.06;98799.84;5100544;28;20220;-55
2023/03/07 03:05:22;;;;;;;33.60;23.47;;;;;;;6.31;87.36;98798.81;5099870;28;20193;-55
2023/03/07 03:07:49;;;;;;;31.53;23.60;;;;;;;6.34;87.94;98790.34;5100077;28;20206;-56
2023/03/07 03:10:16;;;;;;;27.47;22.07;;;;;;;6.31;87.71;98800.50;5116966;28;20212;-55
2023/03/07 03:12:42;;;;;;;29.07;21.40;;;;;;;6.22;87.52;98790.06;5120687;28;20174;-59
2023/03/07 03:15:10;;;;;;;31.27;20.97;;;;;;;6.19;88.22;98793.44;5120622;28;20201;-55
2023/03/07 03:17:37;;;;;;;34.27;22.17;;;;;;;6.26;87.83;98795.28;5120457;28;20196;-55
2023/03/07 03:20:10;;;;;;;31.40;22.63;;;;;;;6.25;87.34;98797.81;5107687;28;20179;-56
2023/03/07 03:22:37;;;;;;;30.30;21.73;;;;;;;6.22;88.30;98782.41;5100195;28;20166;-56
2023/03/07 03:25:05;;;;;;;32.90;24.07;;;;;;;6.11;87.84;98766.91;5100148;28;20167;-55
2023/03/07 03:27:32;;;;;;;30.23;22.07;;;;;;;6.33;88.49;98786.06;5099765;28;20273;-55
2023/03/07 03:29:59;;;;;;;29.63;22.30;;;;;;;6.34;87.92;98788.66;5099858;28;20187;-55
2023/03/07 03:32:25;;;;;;;28.27;22.17;;;;;;;6.37;87.87;98798.91;5099745;28;20174;-56
2023/03/07 03:34:52;;;;;;;30.37;22.33;;;;;;;6.36;87.99;98802.31;5099995;28;20179;-56
2023/03/07 03:37:20;;;;;;;28.97;22.80;;;;;;;6.37;87.81;98801.47;5099695;28;20206;-55
2023/03/07 03:39:47;;;;;;;30.97;22.93;;;;;;;6.42;88.16;98799.91;5099676;28;20201;-55
2023/03/07 03:42:14;;;;;;;31.00;22.53;;;;;;;6.39;87.37;98802.38;5099715;28;20199;-55
2023/03/07 03:44:41;;;;;;;32.47;22.70;;;;;;;6.41;87.50;98805.81;5099609;28;20175;-55
2023/03/07 03:47:07;;;;;;;29.03;22.77;;;;;;;6.07;87.64;98731.09;5099613;28;20171;-54
2023/03/07 03:49:34;;;;;;;33.72;26.58;;;;;;;6.40;88.24;98791.31;5098849;28;20409;-56
2023/03/07 03:52:01;;;;;;;30.10;22.77;;;;;;;6.45;87.05;98783.78;5099503;28;20204;-55
2023/03/07 03:54:29;;;;;;;32.10;23.80;;;;;;;6.51;86.94;98792.41;5099529;28;20242;-55
2023/03/07 03:56:56;;;;;;;28.47;22.93;;;;;;;6.45;86.41;98794.88;5099102;28;20234;-55
2023/03/07 03:59:23;;;;;;;43.23;25.40;;;;;;;6.45;87.26;98794.88;5099367;28;20197;-55
2023/03/07 04:01:50;;;;;;;36.93;25.53;;;;;;;6.45;87.35;98792.31;5099253;28;20175;-55
2023/03/07 04:04:17;;;;;;;30.07;23.80;;;;;;;6.45;86.73;98792.31;5099253;28;20198;-55
2023/03/07 04:06:44;;;;;;;31.80;23.87;;;;;;;6.45;87.08;98804.19;5099282;28;20187;-55
2023/03/07 04:09:10;;;;;;;32.90;24.67;;;;;;;6.49;87.05;98801.72;5098923;28;20181;-56
2023/03/07 04:11:39;;;;;;;32.03;24.17;;;;;;;6.45;87.00;98811.84;5099006;28;20194;-55
2023/03/07 04:14:05;;;;;;;37.67;25.43;;;;;;;6.39;86.89;98812.59;5099096;28;20225;-55
2023/03/07 04:16:32;;;;;;;29.73;24.53;;;;;;;6.43;87.54;98818.59;5098949;28;20228;-55
2023/03/07 04:18:59;;;;;;;32.30;25.13;;;;;;;6.45;86.37;98811.84;5098884;28;20193;-55
2023/03/07 04:21:26;;;;;;;38.20;26.03;;;;;;;6.45;87.26;98819.50;5098712;28;20172;-55
2023/03/07 04:23:54;;;;;;;34.03;25.27;;;;;;;6.39;86.64;98815.13;5098797;28;20186;-56
2023/03/07 04:26:21;;;;;;;33.27;23.60;;;;;;;6.38;87.10;98815.94;5098709;28;20195;-55
2023/03/07 04:28:49;;;;;;;39.70;25.47;;;;;;;6.42;86.61;98817.75;5098527;28;20209;-55
2023/03/07 04:31:17;;;;;;;36.53;25.80;;;;;;;6.40;86.42;98804.09;5098583;28;20205;-55
2023/03/07 04:33:45;;;;;;;37.47;26.13;;;;;;;6.47;86.42;98812.75;5098573;28;20172;-55
2023/03/07 04:36:13;;;;;;;36.73;27.43;;;;;;;6.46;86.71;98811.00;5098542;28;20252;-55
2023/03/07 04:38:41;;;;;;;33.73;26.27;;;;;;;6.43;87.30;98816.91;5098575;28;20194;-55
2023/03/07 04:41:08;;;;;;;33.30;26.03;;;;;;;6.35;86.84;98820.97;5098505;28;20242;-54
2023/03/07 04:43:35;;;;;;;33.37;26.03;;;;;;;6.27;86.28;98821.63;5098561;28;20176;-55
2023/03/07 04:46:03;;;;;;;32.57;24.70;;;;;;;6.22;87.64;98826.66;5098569;28;20195;-55
2023/03/07 04:48:30;;;;;;;35.33;26.17;;;;;;;6.16;87.53;98826.50;5098445;28;20218;-55
2023/03/07 04:50:57;;;;;;;37.10;26.23;;;;;;;6.15;87.51;98819.69;5098307;28;20171;-55
2023/03/07 04:53:23;;;;;;;40.67;27.53;;;;;;;6.06;87.79;98836.47;5098146;28;20174;-55
2023/03/07 04:55:50;;;;;;;35.17;26.53;;;;;;;6.15;88.23;98834.13;5098064;28;20237;-56
2023/03/07 04:58:17;;;;;;;39.87;26.40;;;;;;;6.16;88.19;98829.06;5098152;28;20203;-56
2023/03/07 05:00:45;;;;;;;37.33;27.27;;;;;;;6.09;88.19;98823.78;5098218;28;20168;-55
2023/03/07 05:03:14;;;;;;;38.10;27.30;;;;;;;5.93;88.12;98804.75;5098024;28;20175;-55
2023/03/07 05:05:41;;;;;;;38.53;25.43;;;;;;;6.08;88.11;98830.56;5098093;28;20170;-55
2023/03/07 05:08:08;;;;;;;37.17;25.43;;;;;;;5.87;88.48;98802.03;5098028;28;20174;-55
2023/03/07 05:10:35;;;;;;;39.67;27.37;;;;;;;6.13;88.53;98849.38;5098034;28;20175;-56
2023/03/07 05:13:03;;;;;;;37.37;27.80;;;;;;;6.14;88.93;98842.59;5098007;28;20171;-55
2023/03/07 05:15:30;;;;;;;36.57;27.63;;;;;;;6.08;88.39;98837.34;5097972;28;20260;-55
2023/03/07 05:17:57;;;;;;;39.53;27.80;;;;;;;6.03;89.14;98839.81;5097869;28;20172;-55
2023/03/07 05:20:25;;;;;;;38.23;29.07;;;;;;;6.13;88.18;98843.41;5097175;28;20197;-55
2023/03/07 05:22:51;;;;;;;37.40;27.67;;;;;;;6.17;88.06;98840.13;5097813;28;20174;-55
2023/03/07 05:25:19;;;;;;;38.67;28.60;;;;;;;6.08;87.56;98796.56;5097811;28;20171;-56
2023/03/07 05:27:45;;;;;;;41.63;30.30;;;;;;;6.35;88.26;98828.63;5097645;28;20218;-55
2023/03/07 05:30:12;;;;;;;37.13;28.23;;;;;;;6.42;87.53;98830.50;5097922;28;20178;-55
2023/03/07 05:32:40;;;;;;;35.70;27.40;;;;;;;6.49;87.08;98834.03;5097216;28;20177;-55
2023/03/07 05:35:08;;;;;;;38.50;28.45;;;;;;;6.61;86.97;98831.75;5097619;28;20503;-55
2023/03/07 05:37:36;;;;;;;37.97;28.53;;;;;;;6.66;87.10;98836.94;5086011;28;20203;-55
2023/03/07 05:40:08;;;;;;;38.07;28.17;;;;;;;6.71;86.23;98853.22;5077599;28;20172;-54
2023/03/07 05:42:35;;;;;;;39.23;27.67;;;;;;;6.77;85.40;98858.47;5077527;28;20197;-55
2023/03/07 05:45:02;;;;;;;39.87;29.30;;;;;;;6.87;84.95;98851.00;5077215;28;20191;-55
2023/03/07 05:47:29;;;;;;;42.00;30.63;;;;;;;6.76;84.83;98818.44;5077293;28;20175;-55
2023/03/07 05:49:56;;;;;;;37.97;28.03;;;;;;;6.88;83.85;98847.63;5077427;28;20252;-55
2023/03/07 05:52:23;;;;;;;34.47;26.97;;;;;;;6.90;83.60;98845.97;5077463;28;20205;-55
2023/03/07 05:54:51;;;;;;;35.53;26.37;;;;;;;6.80;82.52;98851.72;5077198;28;20199;-56
2023/03/07 05:57:17;;;;;;;37.60;24.43;;;;;;;6.76;82.64;98852.47;5077207;28;20210;-56
2023/03/07 05:59:44;;;;;;;33.33;25.17;;;;;;;6.87;82.04;98858.69;5077133;28;20175;-55
2023/03/07 06:02:11;;;;;;;35.97;25.20;;;;;;;6.80;81.86;98844.06;5077127;28;20184;-55
2023/03/07 06:04:38;;;;;;;40.13;26.10;;;;;;;6.85;81.39;98856.91;5077212;28;20172;-55
2023/03/07 06:07:04;;;;;;;37.53;26.57;;;;;;;6.83;81.68;98861.16;5076951;28;20177;-54
2023/03/07 06:09:31;;;;;;;39.67;27.63;;;;;;;6.85;82.12;98860.34;5076941;28;20180;-54
2023/03/07 06:11:59;;;;;;;39.60;25.60;;;;;;;6.90;81.39;98852.75;5076891;28;20186;-55
2023/03/07 06:14:26;;;;;;;35.80;25.73;;;;;;;6.85;80.92;98832.25;5076595;28;20179;-56
2023/03/07 06:16:53;;;;;;;39.80;26.43;;;;;;;7.08;81.40;98868.47;5076258;28;20214;-56
2023/03/07 06:19:20;;;;;;;34.40;24.60;;;;;;;7.04;80.79;98865.00;5076650;28;20168;-55
2023/03/07 06:21:46;;;;;;;32.97;24.43;;;;;;;7.08;80.79;98871.03;5076751;28;20172;-59
2023/03/07 06:24:13;;;;;;;35.60;25.43;;;;;;;7.03;80.79;98865.81;5077018;28;20176;-55
2023/03/07 06:26:40;;;;;;;34.07;23.07;;;;;;;6.95;80.83;98862.25;5076729;28;20244;-55
2023/03/07 06:29:08;;;;;;;32.50;22.53;;;;;;;7.00;79.69;98862.34;5076616;28;20211;-55
2023/03/07 06:31:34;;;;;;;33.80;22.47;;;;;;;6.93;79.96;98861.34;5079448;28;20178;-55
2023/03/07 06:34:01;;;;;;;30.73;23.07;;;;;;;6.98;80.04;98866.53;5080473;28;20187;-55
2023/03/07 06:36:28;;;;;;;38.37;24.80;;;;;;;7.08;80.09;98874.44;5080476;28;20195;-59
2023/03/07 06:38:55;;;;;;;40.87;27.67;;;;;;;7.16;80.22;98879.69;5080504;28;20171;-55
2023/03/07 06:41:22;;;;;;;34.87;27.47;;;;;;;7.29;79.94;98889.31;5080073;28;20188;-56
2023/03/07 06:43:51;;;;;;;34.33;24.87;;;;;;;7.32;78.74;98868.94;5080180;28;20175;-56
2023/03/07 06:46:19;;;;;;;35.50;24.70;;;;;;;7.39;78.54;98875.88;5080350;28;20194;-55
2023/03/07 06:48:46;;;;;;;29.70;22.70;;;;;;;7.36;78.26;98878.38;5080382;28;20237;-56
2023/03/07 06:51:13;;;;;;;32.33;23.03;;;;;;;7.36;78.27;98883.47;5080230;28;20194;-56
2023/03/07 06:53:40;;;;;;;32.80;23.67;;;;;;;7.43;77.90;98877.66;5080225;28;20185;-57
2023/03/07 06:56:07;;;;;;;32.83;23.87;;;;;;;7.54;78.48;98882.97;5079820;28;20172;-55
2023/03/07 06:58:33;;;;;;;31.13;22.87;;;;;;;7.64;78.91;98869.50;5079821;28;20196;-55
2023/03/07 07:01:00;;;;;;;31.00;22.27;;;;;;;7.71;78.32;98879.91;5085714;28;20449;-55
2023/03/07 07:03:28;;;;;;;28.87;21.90;;;;;;;7.62;78.77;98851.59;5120226;28;20175;-55
2023/03/07 07:05:55;;;;;;;31.13;21.23;;;;;;;7.93;78.16;98876.00;5120381;28;20187;-56
2023/03/07 07:08:22;;;;;;;31.03;22.90;;;;;;;8.00;78.47;98879.50;5120049;28;20186;-55
2023/03/07 07:10:49;;;;;;;30.57;22.73;;;;;;;8.12;77.30;98879.72;5120225;28;20206;-58
2023/03/07 07:13:15;;;;;;;35.03;22.73;;;;;;;8.21;77.28;98879.88;5104336;28;20213;-56
2023/03/07 07:15:42;;;;;;;31.37;22.10;;;;;;;8.34;77.01;98878.38;5099927;28;20196;-55
2023/03/07 07:18:12;;;;;;;34.97;21.00;;;;;;;8.49;76.40;98881.19;5099591;28;20206;-55
2023/03/07 07:20:40;;;;;;;31.37;22.60;;;;;;;8.56;76.16;98882.97;5100104;28;20231;-55
2023/03/07 07:23:07;;;;;;;33.43;23.10;;;;;;;8.63;75.63;98879.66;5099576;28;20190;-55
2023/03/07 07:25:33;;;;;;;32.57;23.10;;;;;;;8.71;75.42;98875.50;5099153;28;20186;-55
2023/03/07 07:28:00;;;;;;;29.57;21.70;;;;;;;8.81;74.85;98873.09;5099394;28;20224;-56
2023/03/07 07:30:27;;;;;;;29.30;22.37;;;;;;;8.91;74.50;98874.06;5099655;28;20168;-55
2023/03/07 07:32:54;;;;;;;32.33;22.33;;;;;;;9.00;74.14;98879.31;5099629;28;20187;-55
2023/03/07 07:35:21;;;;;;;31.73;22.87;;;;;;;9.14;73.38;98884.59;5099519;28;20172;-55
2023/03/07 07:37:49;;;;;;;32.73;22.30;;;;;;;9.23;72.59;98877.03;5099404;28;20253;-55
2023/03/07 07:40:16;;;;;;;29.67;23.43;;;;;;;9.32;72.42;98875.41;5099610;28;20174;-55
2023/03/07 07:42:43;;;;;;;31.60;22.67;;;;;;;9.40;71.79;98868.66;5098829;28;20183;-56
2023/03/07 07:45:10;;;;;;;29.27;22.33;;;;;;;9.54;71.54;98880.78;5102612;28;20176;-55
2023/03/07 07:47:37;;;;;;;30.77;22.20;;;;;;;9.62;71.13;98880.00;5099392;28;20238;-55
2023/03/07 07:50:05;;;;;;;29.90;21.63;;;;;;;9.67;70.12;98883.47;5099660;28;20179;-56
2023/03/07 07:52:31;;;;;;;29.57;22.90;;;;;;;9.72;70.24;98873.28;5099248;28;20176;-56
2023/03/07 07:54:59;;;;;;;30.00;22.17;;;;;;;9.85;69.81;98881.09;5099253;28;20172;-56
2023/03/07 07:57:26;;;;;;;28.50;21.77;;;;;;;9.96;70.21;98881.19;5099208;28;20199;-56
2023/03/07 07:59:53;;;;;;;28.83;21.93;;;;;;;10.08;70.13;98873.56;5099202;28;20172;-56
2023/03/07 08:02:20;;;;;;;30.60;20.53;;;;;;;10.18;70.29;98878.00;5099010;28;20183;-56
2023/03/07 08:04:47;;;;;;;30.57;21.17;;;;;;;10.26;69.44;98866.06;5098515;28;20178;-56
2023/03/07 08:07:14;;;;;;;31.83;22.50;;;;;;;10.38;68.66;98871.28;5098550;28;20194;-56
2023/03/07 08:09:40;;;;;;;29.93;21.83;;;;;;;10.49;68.33;98868.81;5098424;28;20229;-56
2023/03/07 08:12:11;;;;;;;32.97;22.60;;;;;;;10.55;67.44;98869.69;5097170;28;20196;-55
2023/03/07 08:14:39;;;;;;;30.13;22.33;;;;;;;10.60;67.15;98864.59;5086453;28;20242;-56
2023/03/07 08:17:05;;;;;;;27.43;23.13;;;;;;;10.69;66.80;98862.06;5096824;28;20210;-55
2023/03/07 08:19:32;;;;;;;30.70;22.43;;;;;;;10.79;67.29;98862.97;5098666;28;20167;-55
2023/03/07 08:22:00;;;;;;;33.03;24.42;;;;;;;10.94;66.65;98863.91;5097292;28;20441;-55
2023/03/07 08:24:27;;;;;;;29.67;22.30;;;;;;;11.06;65.62;98861.41;5098693;28;20179;-55
2023/03/07 08:26:54;;;;;;;27.47;22.90;;;;;;;11.10;64.66;98864.81;5097947;28;20172;-54
2023/03/07 08:29:22;;;;;;;26.60;21.03;;;;;;;11.08;64.51;98848.53;5098509;28;20175;-55
2023/03/07 08:31:50;;;;;;;30.53;22.00;;;;;;;11.20;64.73;98862.31;5098634;28;20167;-56
2023/03/07 08:34:17;;;;;;;26.83;19.77;;;;;;;11.31;64.36;98866.63;5098391;28;20187;-56
2023/03/07 08:36:44;;;;;;;24.60;20.83;;;;;;;11.33;63.94;98865.75;5094491;28;20192;-56
2023/03/07 08:39:11;;;;;;;36.67;20.27;;;;;;;11.40;63.95;98867.50;5097340;28;20179;-55
2023/03/07 08:41:39;;;;;;;33.53;21.90;;;;;;;11.44;63.36;98865.78;5097892;28;20225;-55
2023/03/07 08:44:05;;;;;;;27.63;21.13;;;;;;;11.49;63.19;98861.50;5097414;28;20168;-55
2023/03/07 08:46:33;;;;;;;33.60;21.93;;;;;;;11.56;62.85;98858.13;5095458;28;20222;-55
2023/03/07 08:49:00;;;;;;;26.27;20.77;;;;;;;11.52;62.37;98864.09;5097358;28;20167;-55
2023/03/07 08:51:27;;;;;;;31.87;22.30;;;;;;;11.56;62.82;98860.69;5097429;28;20182;-55
2023/03/07 08:53:54;;;;;;;26.10;20.60;;;;;;;11.63;62.01;98850.41;5094572;28;20201;-56
2023/03/07 08:56:21;;;;;;;28.77;21.00;;;;;;;11.75;62.27;98857.31;5097700;28;20306;-55
2023/03/07 08:58:47;;;;;;;29.43;21.10;;;;;;;11.75;61.15;98850.47;5094600;28;20282;-56
2023/03/07 09:01:14;;;;;;;26.80;20.40;;;;;;;11.82;61.25;98849.59;5096952;28;20209;-56
2023/03/07 09:03:42;;;;;;;28.93;22.07;;;;;;;11.88;60.78;98851.31;5097266;28;20182;-56
2023/03/07 09:06:16;;;;;;;27.03;19.43;;;;;;;11.98;60.28;98850.47;5097116;28;20206;-55
2023/03/07 09:08:43;;;;;;;28.27;21.57;;;;;;;12.10;59.65;98844.47;5097772;28;20183;-55
2023/03/07 09:11:10;;;;;;;27.43;20.27;;;;;;;12.23;59.23;98848.72;5097744;28;20193;-56
2023/03/07 09:13:37;;;;;;;30.67;21.97;;;;;;;12.22;58.85;98853.03;5097579;28;20172;-56
2023/03/07 09:16:05;;;;;;;29.03;21.20;;;;;;;12.13;59.32;98849.59;5097580;28;20181;-56
2023/03/07 09:18:32;;;;;;;28.48;23.20;;;;;;;12.22;58.95;98849.63;5096787;28;20425;-56
2023/03/07 09:21:00;;;;;;;30.07;23.20;;;;;;;12.32;59.34;98841.88;5097634;28;20172;-56
2023/03/07 09:23:27;;;;;;;25.33;20.43;;;;;;;12.22;58.70;98840.16;5097822;28;20168;-56
2023/03/07 09:25:54;;;;;;;28.67;20.37;;;;;;;12.31;59.23;98842.72;5097716;28;20183;-56
2023/03/07 09:28:20;;;;;;;30.10;22.07;;;;;;;12.44;59.10;98836.69;5097354;28;20196;-57
2023/03/07 09:30:47;;;;;;;30.00;23.67;;;;;;;12.58;58.65;98828.09;5097424;28;20244;-55
2023/03/07 09:33:14;;;;;;;32.67;22.53;;;;;;;12.68;57.69;98837.50;5097444;28;20180;-55
2023/03/07 09:35:41;;;;;;;28.13;23.03;;;;;;;12.74;57.29;98828.03;5093105;28;20215;-55
2023/03/07 09:38:09;;;;;;;25.37;19.27;;;;;;;12.77;56.24;98829.75;5088813;28;20262;-56
2023/03/07 09:40:38;;;;;;;28.07;20.93;;;;;;;12.75;56.15;98818.56;5096874;28;20174;-56
2023/03/07 09:43:13;;;;;;;29.17;20.47;;;;;;;12.86;56.00;98830.56;5097216;28;20236;-55
2023/03/07 09:45:57;;;;;;;25.33;19.33;;;;;;;12.81;54.79;98810.81;5097256;28;20167;-56
2023/03/07 09:48:53;;;;;;;25.60;19.67;;;;;;;12.88;54.75;98823.66;5097419;28;20213;-55
2023/03/07 09:51:23;;;;;;;30.60;21.47;;;;;;;13.10;55.24;98823.63;5097024;28;20215;-55
2023/03/07 09:53:55;;;;;;;27.10;21.70;;;;;;;13.24;54.77;98814.09;5097266;28;20172;-56
2023/03/07 09:56:25;;;;;;;27.70;21.57;;;;;;;13.42;54.61;98812.28;5097176;28;20210;-55
2023/03/07 09:58:58;;;;;;;30.03;21.67;;;;;;;13.51;54.13;98817.34;5096823;28;20222;-56
2023/03/07 10:01:29;;;;;;;27.40;21.13;;;;;;;13.67;53.75;98819.84;5096666;28;20171;-55
2023/03/07 10:04:00;;;;;;;29.07;21.77;;;;;;;13.88;52.45;98805.06;5100402;28;20171;-56
2023/03/07 10:06:33;;;;;;;31.00;21.90;;;;;;;13.91;51.46;98793.84;5119097;27;20199;-56
2023/03/07 10:09:04;;;;;;;25.67;20.23;;;;;;;13.95;51.01;98792.97;5104786;28;20182;-56
2023/03/07 10:11:50;;;;;;;32.00;21.03;;;;;;;14.02;51.16;98799.78;5100551;28;20190;-55
2023/03/07 10:14:35;;;;;;;23.07;18.73;;;;;;;14.00;50.43;98797.22;5100427;28;20192;-55
2023/03/07 10:17:12;;;;;;;22.07;17.43;;;;;;;13.86;49.65;98798.19;5099677;28;20194;-56
2023/03/07 10:19:46;;;;;;;25.00;18.13;;;;;;;13.78;50.35;98790.50;5100479;28;20167;-55
2023/03/07 10:22:19;;;;;;;21.83;17.37;;;;;;;13.85;50.49;98787.00;5099805;28;20168;-56
2023/03/07 10:25:06;;;;;;;26.63;18.70;;;;;;;14.07;49.93;98779.91;5119304;28;20233;-56
2023/03/07 10:27:33;;;;;;;21.67;16.80;;;;;;;14.30;48.87;98782.28;5120068;28;20267;-56
2023/03/07 10:30:08;;;;;;;24.40;17.27;;;;;;;14.38;48.70;98772.75;5120476;28;20205;-55
2023/03/07 10:32:39;;;;;;;23.00;18.60;;;;;;;14.29;48.28;98741.81;5120085;28;20180;-56
2023/03/07 10:35:17;;;;;;;23.40;19.23;;;;;;;14.57;48.29;98758.75;5108088;28;20213;-56
2023/03/07 10:37:49;;;;;;;28.87;19.60;;;;;;;14.17;48.53;98676.47;5100331;28;20267;-56
2023/03/07 10:40:27;;;;;;;30.57;20.67;;;;;;;14.80;48.84;98750.72;5100117;28;20172;-56
2023/03/07 10:42:55;;;;;;;28.53;20.07;;;;;;;14.87;49.08;98745.44;5100058;28;20186;-56
2023/03/07 10:45:21;;;;;;;29.77;20.93;;;;;;;15.04;48.77;98740.06;5100275;28;20170;-56
2023/03/07 10:47:48;;;;;;;29.93;19.43;;;;;;;15.12;48.77;98735.63;5099737;28;20210;-56
2023/03/07 10:50:29;;;;;;;29.87;18.70;;;;;;;15.26;48.62;98737.16;5100381;28;20188;-56
2023/03/07 10:52:58;;;;;;;32.47;18.77;;;;;;;15.25;48.80;98726.81;5100197;28;20167;-57
2023/03/07 10:55:39;;;;;;;22.00;17.70;;;;;;;15.30;47.52;98712.06;5099788;28;20238;-56
2023/03/07 10:58:14;;;;;;;18.10;13.83;;;;;;;15.11;46.16;98723.56;5099713;28;20195;-56
2023/03/07 11:00:43;;;;;;;16.00;13.53;;;;;;;15.05;47.17;98715.91;5099931;28;20179;-55
2023/03/07 11:03:23;;;;;;;18.80;13.80;;;;;;;14.82;48.22;98694.66;5099867;28;20170;-56
2023/03/07 11:05:51;;;;;;;17.17;14.87;;;;;;;14.94;48.14;98700.53;5099689;28;20193;-55
2023/03/07 11:08:26;;;;;;;15.40;13.80;;;;;;;15.11;47.83;98700.28;5099792;28;20182;-56
2023/03/07 11:10:54;;;;;;;24.33;12.90;;;;;;;15.26;47.36;98690.56;5099694;28;20241;-55
2023/03/07 11:13:23;;;;;;;19.17;14.27;;;;;;;15.35;47.62;98674.06;5099697;28;20221;-56
2023/03/07 11:15:50;;;;;;;20.43;14.57;;;;;;;15.60;47.60;98684.88;5099508;28;20231;-56
2023/03/07 11:18:29;;;;;;;19.23;15.50;;;;;;;15.61;47.56;98671.91;5098594;28;20199;-55
2023/03/07 11:20:57;;;;;;;20.13;15.10;;;;;;;15.69;47.08;98664.84;5099416;28;20171;-56
2023/03/07 11:23:25;;;;;;;18.57;14.87;;;;;;;15.76;46.13;98670.78;5099551;28;20183;-56
2023/03/07 11:25:56;;;;;;;17.00;14.77;;;;;;;15.85;45.94;98661.09;5099284;28;20192;-56
2023/03/07 11:28:29;;;;;;;19.47;14.20;;;;;;;15.87;45.61;98655.91;5098433;28;20207;-57